Black Eagle, MT

2:25 PM MDT on July 31, 2014 (GMT -0600)
Malmstrom AFB (KGFA) Elev 3527 ft | 47.50 °N, 111.19 °W | Change Station

Current weather conditions updated 29 minutes ago

Partly Cloudy
Partly Cloudy
90 °F
Feels Like 90 °F
N
5
Wind Variable Wind from Variable
Gusts 13 mph

Today is forecast to be nearly the same temperature as yesterday.

Today
High -- | Low -- °F
--% Chance of Precip.
Yesterday
High -- | Low -- °F
Precip. -- in
6:01 AM 9:00 PM
Waxing Crescent, 20% visible
Pressure 30.01 in
Visibility 10.0 miles
Clouds Few 11000 ft
Dew Point 39 °F
Humidity 16%
Rainfall 0.00 in
Snow Depth Not available.
UV 10 out of 12
Pollen 6.90 out of 12
Air Quality Not available.
Flu Activity Not available.
METAR KGFA 311956Z AUTO VRB04G11KT 10SM FEW110 32/04 A3010 RMK AO2 SLP160 T03220037

More Conditions Fewer Conditions

Pressure 30.01 in
Visibility 10.0 miles
Clouds Few 11000 ft
Dew Point 39 °F
Humidity 16%
Rainfall 0.00 in
Snow Depth Not available.
UV 10 out of 12
Pollen 6.90 out of 12
Air Quality Not available.
Flu Activity Not available.
METAR KGFA 311956Z AUTO VRB04G11KT 10SM FEW110 32/04 A3010 RMK AO2 SLP160 T03220037

More Conditions Fewer Conditions

10-Day Weather Forecast

Almanac

Astronomy

Jul. 31, 2014 Rise Set
Actual Time 6:01 AM MDT 9:00 PM MDT
Civil Twilight 5:25 AM MDT 9:36 PM MDT
Nautical Twilight 4:39 AM MDT 10:22 PM MDT
Astronomical Twilight 3:42 AM MDT 11:18 PM MDT
Moon 10:55 AM MDT 10:50 PM MDT
Length of Visible Light 16h 10m
Length of Day
14h 58m
Tomorrow will be 2m 40s shorter.
Waxing Crescent, 20% of the Moon is Illuminated
Today
Waxing Crescent
Aug 3
First Quarter
Aug 10
Full
Aug 17
Last Quarter
Aug 25
New

Today's Extremes

State Highs State Lows

Community

WunderPhotos

Upload Photos

1,739,446 photos uploaded!

Nearby

Snow Depth

Station Depth Elevation
Wood Creek 0 in 5960 ft
Waldron 0 in 5600 ft
Tizer Basin 0 in 6840 ft
Crystal Lake 0 in 6050 ft
Porcupine 0 in 6500 ft

Earthquake Activity

City Distance Mag. Time & Date
Townsend, Montana 86 miles 3.0 10:32 AM MDT
2014-07-26
Minimum magnitude displayed is 2.5.

Coastal Water Temperatures

Place Temperature
No Stations Reporting

Nearby Weather Stations

Station Location Temp. Heat Index Dew Point Humidity Wind Precip. Elev Updated Type
Spicer's, Great Falls, MT 95.9 °F 92 °F 46 °F 18% ENE  at  2.0 mph 0.00 in / hr 3323 ft 2:25 PM MDT Rapid Fire
Countryside Village, Great Falls, MT 93.0 °F 92 °F 59 °F 32% NNW  at  1.6 mph 0.00 in / hr 3514 ft 2:25 PM MDT Rapid Fire
6S Great Falls, Great Falls, MT 92.2 °F 88 °F 40 °F 17% West  at  6.7 mph 0.00 in / hr 3510 ft 2:25 PM MDT Rapid Fire
Infinity Lofts, Sun River, MT 93.0 °F 89 °F 45 °F 19% North  at  6.8 mph - / hr 3488 ft 2:22 PM MDT Normal
Burgmaier Farm, Power, MT 90.9 °F 87 °F 41 °F 18% East  at  1.6 mph 0.00 in / hr 3753 ft 2:25 PM MDT Rapid Fire

Show More Stations Show Fewer Stations